Time;durP1;ratioP1;P1;durP2;ratioP2;P2;SDS_P1;SDS_P2;PMS_P1;PMS_P2;Temp;Humidity;BMP_temperature;BMP_pressure;BME280_temperature;BME280_humidity;BME280_pressure;Samples;Min_cycle;Max_cycle;Signal;HPM_P1;HPM_P2
2021/04/23 00:01:39;;;;;;;16.57;8.47;;;;;;;8.34;60.49;102320.78;6164549;28;20235;-54
2021/04/23 00:05:00;;;;;;;16.60;7.90;;;;;;;8.25;61.20;102330.94;6164262;28;20235;-54
2021/04/23 00:08:21;;;;;;;16.50;8.30;;;;;;;8.04;62.07;102319.19;6165062;28;20230;-56
2021/04/23 00:11:45;;;;;;;15.70;7.60;;;;;;;7.96;62.09;102322.44;6166669;28;21764;-53
2021/04/23 00:15:07;;;;;;;14.37;7.93;;;;;;;7.75;62.88;102326.19;6163658;28;20556;-55
2021/04/23 00:18:28;;;;;;;13.67;7.27;;;;;;;7.58;63.06;102320.59;6163867;28;20239;-50
2021/04/23 00:21:51;;;;;;;11.47;6.73;;;;;;;7.81;62.17;102312.53;6157721;28;20237;-48
2021/04/23 00:25:13;;;;;;;15.13;6.83;;;;;;;7.82;62.42;102320.34;6163012;28;20344;-55
2021/04/23 00:28:34;;;;;;;14.67;6.87;;;;;;;7.80;62.13;102322.03;6170132;28;20636;-53
2021/04/23 00:31:55;;;;;;;17.40;7.97;;;;;;;7.73;62.04;102325.28;6155887;28;20551;-52
2021/04/23 00:35:17;;;;;;;14.03;7.70;;;;;;;7.79;61.68;102325.47;6159254;28;20250;-50
2021/04/23 00:38:39;;;;;;;16.17;6.90;;;;;;;7.80;61.58;102326.34;6154173;28;20238;-56
2021/04/23 00:41:59;;;;;;;15.57;7.13;;;;;;;7.68;61.94;102320.00;6165340;28;20226;-52
2021/04/23 00:45:23;;;;;;;11.50;7.20;;;;;;;7.75;61.53;102310.66;6163401;28;20261;-56
2021/04/23 00:48:48;;;;;;;19.83;7.17;;;;;;;7.55;62.23;102314.44;6159926;28;20508;-52
2021/04/23 00:52:08;;;;;;;11.30;6.53;;;;;;;7.58;61.78;102315.41;6151099;28;20230;-52
2021/04/23 00:55:30;;;;;;;14.37;6.10;;;;;;;7.65;61.59;102322.50;6162394;28;20325;-49
2021/04/23 00:58:52;;;;;;;10.80;6.77;;;;;;;7.55;61.46;102325.69;6156072;28;20239;-49
2021/04/23 01:02:14;;;;;;;9.97;5.97;;;;;;;7.56;61.56;102321.34;6158155;28;20238;-50
2021/04/23 01:05:36;;;;;;;13.27;6.37;;;;;;;7.51;61.58;102318.66;6161172;28;20226;-57
2021/04/23 01:08:59;;;;;;;13.70;6.47;;;;;;;7.60;61.42;102312.81;6165152;28;20262;-53
2021/04/23 01:12:20;;;;;;;10.20;6.53;;;;;;;7.54;61.40;102312.66;6151131;28;20245;-54
2021/04/23 01:15:40;;;;;;;12.57;6.23;;;;;;;7.67;60.93;102318.22;6163673;28;20238;-53
2021/04/23 01:19:03;;;;;;;13.20;5.70;;;;;;;7.90;60.18;102323.16;6159102;28;20241;-52
2021/04/23 01:22:24;;;;;;;13.03;7.03;;;;;;;7.55;61.17;102314.44;6161583;28;20300;-53
2021/04/23 01:25:45;;;;;;;12.00;5.77;;;;;;;7.77;60.69;102321.94;6163178;28;20234;-52
2021/04/23 01:29:07;;;;;;;12.40;6.57;;;;;;;7.52;61.28;102310.03;6154178;28;20269;-53
2021/04/23 01:32:28;;;;;;;12.20;6.73;;;;;;;7.83;60.11;102313.44;6161693;28;20226;-54
2021/04/23 01:35:48;;;;;;;18.10;6.73;;;;;;;7.92;59.79;102318.00;6158608;28;20705;-53
2021/04/23 01:39:13;;;;;;;13.73;6.77;;;;;;;7.74;60.62;102321.88;6150219;28;20230;-56
2021/04/23 01:42:34;;;;;;;14.10;7.87;;;;;;;7.81;60.41;102312.53;6151251;28;20234;-53
2021/04/23 01:45:55;;;;;;;17.03;6.83;;;;;;;7.66;60.75;102318.22;6165536;28;20234;-56
2021/04/23 01:49:18;;;;;;;8.87;5.70;;;;;;;7.77;60.30;102324.53;6162209;28;20360;-53
2021/04/23 01:52:39;;;;;;;10.87;5.73;;;;;;;7.91;59.63;102322.31;6158790;28;20231;-53
2021/04/23 01:56:01;;;;;;;11.70;6.63;;;;;;;7.77;60.19;102323.66;6164933;28;20226;-50
2021/04/23 01:59:22;;;;;;;11.53;6.67;;;;;;;7.92;59.79;102320.59;6152028;28;20285;-52
2021/04/23 02:02:43;;;;;;;16.63;7.43;;;;;;;7.88;59.91;102336.06;6163816;28;20227;-53
2021/04/23 02:06:05;;;;;;;15.87;7.37;;;;;;;7.58;60.82;102328.38;6167486;28;20226;-52
2021/04/23 02:09:25;;;;;;;10.90;6.60;;;;;;;7.66;60.72;102328.56;6163278;28;20231;-50
2021/04/23 02:12:47;;;;;;;11.63;5.57;;;;;;;7.84;59.93;102323.88;6169218;28;20271;-51
2021/04/23 02:16:08;;;;;;;11.37;6.27;;;;;;;8.00;59.51;102325.13;6164159;28;20604;-53
2021/04/23 02:19:28;;;;;;;11.27;5.80;;;;;;;7.93;59.68;102320.66;6160388;28;20250;-55
2021/04/23 02:22:49;;;;;;;10.40;5.37;;;;;;;7.78;60.04;102318.53;6166948;28;20507;-52
2021/04/23 02:26:12;;;;;;;11.07;6.03;;;;;;;7.85;59.53;102343.78;6164892;28;20621;-50
2021/04/23 02:29:33;;;;;;;9.90;5.53;;;;;;;7.97;59.55;102338.03;6160262;28;20242;-48
2021/04/23 02:32:54;;;;;;;11.43;5.63;;;;;;;7.74;59.77;102344.34;6168054;28;20234;-55
2021/04/23 02:36:15;;;;;;;10.27;4.67;;;;;;;7.97;58.90;102339.72;6166928;28;20612;-50
2021/04/23 02:39:35;;;;;;;13.37;5.27;;;;;;;7.69;59.31;102342.47;6168429;28;20337;-47
2021/04/23 02:43:01;;;;;;;15.10;4.63;;;;;;;7.79;58.53;102346.22;6166313;28;20241;-48
2021/04/23 02:46:25;;;;;;;15.77;4.73;;;;;;;7.65;58.02;102357.91;6167296;28;20246;-48
2021/04/23 02:49:45;;;;;;;13.00;5.10;;;;;;;7.71;57.39;102365.00;6159624;28;20310;-52
2021/04/23 02:53:07;;;;;;;9.07;3.87;;;;;;;7.71;56.82;102357.22;6164780;28;20234;-49
2021/04/23 02:56:29;;;;;;;13.10;5.17;;;;;;;7.57;57.34;102357.72;6166080;28;20588;-52
2021/04/23 02:59:49;;;;;;;13.67;4.80;;;;;;;7.72;56.87;102353.81;6175582;28;20230;-49
2021/04/23 03:03:11;;;;;;;8.93;4.77;;;;;;;7.46;57.24;102366.88;6166696;28;20326;-53
2021/04/23 03:06:32;;;;;;;11.83;5.20;;;;;;;7.29;57.78;102364.69;6159959;28;20258;-53
2021/04/23 03:09:52;;;;;;;8.07;4.30;;;;;;;7.38;57.12;102365.78;6159651;28;20659;-51
2021/04/23 03:13:15;;;;;;;13.37;5.50;;;;;;;7.60;56.18;102365.59;6167679;28;20222;-48
2021/04/23 03:16:37;;;;;;;12.67;4.60;;;;;;;7.84;54.76;102364.50;6166617;28;20235;-49
2021/04/23 03:19:58;;;;;;;9.63;3.50;;;;;;;7.79;54.51;102358.28;6166092;28;20509;-52
2021/04/23 03:23:19;;;;;;;32.67;6.90;;;;;;;7.83;54.01;102360.13;6162763;28;20239;-56
2021/04/23 03:26:41;;;;;;;9.70;4.53;;;;;;;7.82;53.85;102359.25;6161095;28;20230;-50
2021/04/23 03:30:04;;;;;;;5.70;3.20;;;;;;;7.76;53.38;102350.44;6165827;28;20231;-53
2021/04/23 03:33:24;;;;;;;9.23;3.83;;;;;;;7.81;52.95;102359.22;6164339;28;20258;-49
2021/04/23 03:36:46;;;;;;;10.67;4.67;;;;;;;7.66;52.83;102368.34;6165977;28;20214;-51
2021/04/23 03:40:08;;;;;;;13.43;3.97;;;;;;;7.63;52.75;102363.06;6152504;28;20515;-49
2021/04/23 03:43:28;;;;;;;12.73;3.80;;;;;;;7.81;52.35;102369.59;6164424;28;20239;-50
2021/04/23 03:46:49;;;;;;;9.23;2.83;;;;;;;7.72;52.82;102366.75;6154985;28;20266;-52
2021/04/23 03:50:12;;;;;;;10.93;4.17;;;;;;;7.85;52.49;102376.59;6160567;28;20242;-51
2021/04/23 03:53:34;;;;;;;7.37;3.20;;;;;;;7.87;52.50;102378.44;6164022;28;20640;-55
2021/04/23 03:56:54;;;;;;;10.27;3.83;;;;;;;8.01;52.06;102378.78;6167181;28;20230;-49
2021/04/23 04:00:19;;;;;;;9.40;3.13;;;;;;;8.00;52.03;102374.44;6165998;28;21092;-51
2021/04/23 04:03:41;;;;;;;19.83;4.30;;;;;;;7.98;52.47;102381.28;6163397;28;20230;-54
2021/04/23 04:07:01;;;;;;;13.43;4.60;;;;;;;8.09;52.35;102371.22;6156735;28;20234;-52
2021/04/23 04:10:23;;;;;;;13.47;4.30;;;;;;;8.06;52.81;102387.59;6167023;28;20242;-55
2021/04/23 04:13:43;;;;;;;10.73;5.23;;;;;;;8.00;52.44;102387.41;6164347;28;20631;-52
2021/04/23 04:17:04;;;;;;;10.73;5.07;;;;;;;7.86;52.78;102380.97;6163768;28;20234;-53
2021/04/23 04:20:27;;;;;;;12.37;4.20;;;;;;;7.96;52.75;102395.06;6159970;28;20230;-53
2021/04/23 04:23:47;;;;;;;13.80;3.83;;;;;;;8.06;52.65;102392.78;6160437;28;20230;-54
2021/04/23 04:27:09;;;;;;;9.73;4.37;;;;;;;7.82;53.70;102399.88;6160931;28;20238;-51
2021/04/23 04:30:29;;;;;;;10.63;4.07;;;;;;;8.04;53.22;102398.75;6163942;28;20230;-54
2021/04/23 04:33:51;;;;;;;8.50;4.50;;;;;;;7.93;52.96;102398.47;6159425;28;20230;-51
2021/04/23 04:37:11;;;;;;;10.93;4.23;;;;;;;8.00;52.11;102407.28;6165117;28;20358;-52
2021/04/23 04:40:32;;;;;;;9.57;3.20;;;;;;;8.06;51.82;102397.06;6163171;28;20727;-53
2021/04/23 04:43:53;;;;;;;11.93;3.73;;;;;;;7.71;52.66;102401.28;6157142;28;20231;-53
2021/04/23 04:47:13;;;;;;;10.90;3.27;;;;;;;7.87;51.88;102406.06;6155782;28;20234;-52
2021/04/23 04:50:36;;;;;;;12.13;3.93;;;;;;;7.99;51.62;102416.78;6161119;28;20676;-52
2021/04/23 04:53:57;;;;;;;10.73;3.10;;;;;;;8.10;51.27;102414.47;6160755;28;20275;-50
2021/04/23 04:57:18;;;;;;;17.77;3.83;;;;;;;8.13;51.12;102419.75;6163840;28;20230;-47
2021/04/23 05:00:42;;;;;;;16.80;3.90;;;;;;;7.64;52.12;102424.47;6157234;28;20250;-53
2021/04/23 05:04:03;;;;;;;14.77;4.37;;;;;;;7.71;51.85;102425.50;6150441;28;20235;-52
2021/04/23 05:07:23;;;;;;;9.93;3.57;;;;;;;7.76;51.98;102423.06;6159110;28;20234;-53
2021/04/23 05:10:44;;;;;;;10.47;3.40;;;;;;;7.71;52.20;102429.81;6154609;28;20242;-52
2021/04/23 05:14:04;;;;;;;12.30;3.70;;;;;;;7.78;52.27;102435.22;6159795;28;20575;-53
2021/04/23 05:17:26;;;;;;;9.33;3.40;;;;;;;8.00;51.83;102433.22;6160318;28;20230;-53
2021/04/23 05:20:47;;;;;;;11.57;4.10;;;;;;;8.06;51.81;102449.88;6159087;28;20491;-49
2021/04/23 05:24:08;;;;;;;19.53;4.53;;;;;;;7.80;52.55;102443.06;6158508;28;20728;-50
2021/04/23 05:27:28;;;;;;;8.90;3.53;;;;;;;8.06;51.98;102455.06;6159374;28;20230;-55
2021/04/23 05:30:50;;;;;;;11.40;3.30;;;;;;;8.02;52.16;102452.31;6152232;28;20604;-52
2021/04/23 05:34:11;;;;;;;13.40;3.43;;;;;;;8.13;52.31;102450.91;6152914;28;20238;-51
2021/04/23 05:37:32;;;;;;;9.73;3.93;;;;;;;8.20;51.94;102459.72;6160152;28;20230;-50
2021/04/23 05:40:53;;;;;;;11.03;3.63;;;;;;;8.24;52.24;102465.03;6164120;28;20246;-51
2021/04/23 05:44:13;;;;;;;8.37;4.10;;;;;;;8.24;52.25;102467.63;6160503;28;20261;-53
2021/04/23 05:47:34;;;;;;;11.07;3.60;;;;;;;8.12;52.86;102469.00;6153578;28;20242;-52
2021/04/23 05:50:55;;;;;;;13.90;4.93;;;;;;;8.64;56.01;102471.28;6157479;28;20230;-50
2021/04/23 05:54:16;;;;;;;16.67;5.40;;;;;;;8.54;55.74;102469.31;6164770;28;20230;-52
2021/04/23 05:57:38;;;;;;;13.50;5.00;;;;;;;8.67;55.36;102480.91;6163936;28;20234;-50
2021/04/23 06:00:59;;;;;;;14.47;5.80;;;;;;;8.74;53.66;102485.38;6157291;28;20238;-53
2021/04/23 06:04:19;;;;;;;14.40;5.57;;;;;;;8.74;53.00;102487.13;6166939;28;20515;-50
2021/04/23 06:07:41;;;;;;;15.30;4.27;;;;;;;8.83;53.12;102483.03;6159809;28;20541;-51
2021/04/23 06:11:01;;;;;;;16.60;4.40;;;;;;;9.14;53.29;102483.75;6161719;28;20258;-54
2021/04/23 06:14:23;;;;;;;15.97;3.97;;;;;;;9.06;53.76;102490.50;6157019;28;20237;-52
2021/04/23 06:17:44;;;;;;;20.10;7.00;;;;;;;9.02;53.66;102489.56;6166528;28;20234;-49
2021/04/23 06:21:06;;;;;;;14.23;4.10;;;;;;;9.30;52.24;102481.53;6161170;28;20239;-54
2021/04/23 06:24:27;;;;;;;14.63;4.73;;;;;;;8.87;53.19;102487.44;6162715;28;20254;-54
2021/04/23 06:27:51;;;;;;;12.33;3.60;;;;;;;9.42;51.92;102500.88;6159907;28;20617;-50
2021/04/23 06:31:13;;;;;;;12.20;3.63;;;;;;;9.46;51.85;102494.91;6163369;28;20318;-54
2021/04/23 06:34:34;;;;;;;14.70;5.20;;;;;;;9.55;51.73;102509.81;6157593;28;20234;-53
2021/04/23 06:37:54;;;;;;;13.33;4.93;;;;;;;9.23;51.88;102509.97;6157938;28;20238;-50
2021/04/23 06:41:16;;;;;;;15.23;4.30;;;;;;;9.25;51.77;102521.28;6147706;28;20258;-58
2021/04/23 06:44:36;;;;;;;11.70;4.47;;;;;;;8.64;53.42;102524.97;6159305;28;20345;-51
2021/04/23 06:47:57;;;;;;;12.47;4.30;;;;;;;8.91;53.13;102521.31;6155658;28;20235;-54
2021/04/23 06:51:20;;;;;;;18.50;6.03;;;;;;;8.79;53.00;102514.97;6162086;28;20525;-54
2021/04/23 06:54:40;;;;;;;10.27;4.63;;;;;;;9.11;52.17;102509.69;6163366;28;20224;-49
2021/04/23 06:58:03;;;;;;;16.17;5.57;;;;;;;9.20;52.07;102522.91;6154500;28;20238;-52
2021/04/23 07:01:23;;;;;;;15.20;4.43;;;;;;;9.41;51.59;102511.25;6147234;28;20317;-56
2021/04/23 07:04:43;;;;;;;12.13;4.13;;;;;;;9.45;51.07;102526.06;6160252;28;20257;-55
2021/04/23 07:08:05;;;;;;;16.27;5.43;;;;;;;9.17;51.42;102509.84;6155932;28;20234;-52
2021/04/23 07:11:25;;;;;;;13.57;3.57;;;;;;;9.46;49.96;102512.25;6164211;28;20563;-55
2021/04/23 07:14:46;;;;;;;9.50;4.70;;;;;;;9.30;49.80;102517.91;6162943;28;20256;-57
2021/04/23 07:18:07;;;;;;;9.07;3.10;;;;;;;9.85;48.86;102516.56;6164310;28;20333;-52
2021/04/23 07:21:28;;;;;;;14.00;3.83;;;;;;;9.72;47.84;102518.00;6165814;28;20625;-55
2021/04/23 07:24:48;;;;;;;15.53;4.87;;;;;;;9.85;48.63;102532.16;6159131;28;20223;-53
2021/04/23 07:28:09;;;;;;;12.13;4.70;;;;;;;9.89;48.33;102527.88;6158793;28;20235;-56
2021/04/23 07:31:30;;;;;;;7.67;3.03;;;;;;;9.89;47.10;102534.00;6155995;28;20317;-54
2021/04/23 07:34:51;;;;;;;14.37;5.17;;;;;;;10.10;47.16;102538.75;6161339;28;20999;-52
2021/04/23 07:38:12;;;;;;;10.67;3.47;;;;;;;9.86;48.09;102528.72;6157910;28;20230;-55
2021/04/23 07:41:32;;;;;;;10.37;3.70;;;;;;;10.09;47.33;102541.34;6156692;28;20234;-54
2021/04/23 07:44:55;;;;;;;17.10;4.90;;;;;;;10.32;46.35;102544.44;6163899;28;20231;-53
2021/04/23 07:48:16;;;;;;;14.67;4.13;;;;;;;10.34;45.30;102551.41;6159686;28;20336;-47
2021/04/23 07:51:36;;;;;;;9.33;3.30;;;;;;;10.57;45.00;102551.00;6159349;28;20243;-50
2021/04/23 07:55:01;;;;;;;13.30;5.07;;;;;;;10.62;48.18;102546.72;6147474;28;20234;-52
2021/04/23 07:58:21;;;;;;;8.37;3.30;;;;;;;10.90;44.92;102549.84;6159064;28;20230;-55
2021/04/23 08:01:42;;;;;;;19.87;8.27;;;;;;;10.57;43.39;102556.19;6157783;28;20242;-53
2021/04/23 08:05:04;;;;;;;10.90;3.03;;;;;;;10.62;43.75;102555.44;6162054;28;20235;-52
2021/04/23 08:08:24;;;;;;;8.10;3.10;;;;;;;10.69;44.06;102550.34;6156039;28;20239;-57
2021/04/23 08:11:45;;;;;;;10.07;3.47;;;;;;;10.91;43.09;102559.41;6164734;28;20235;-52
2021/04/23 08:15:07;;;;;;;11.93;5.00;;;;;;;11.21;42.58;102562.53;6149126;28;20322;-56
2021/04/23 08:18:28;;;;;;;10.50;3.33;;;;;;;10.89;41.81;102564.56;6161822;28;20262;-51
2021/04/23 08:21:49;;;;;;;12.00;3.60;;;;;;;11.00;42.28;102563.03;6163189;28;20523;-56
2021/04/23 08:25:12;;;;;;;18.53;3.37;;;;;;;10.93;42.50;102561.16;6146312;28;20317;-53
2021/04/23 08:28:33;;;;;;;10.50;4.07;;;;;;;10.72;42.79;102561.69;6166623;28;20321;-55
2021/04/23 08:31:53;;;;;;;12.13;3.43;;;;;;;10.66;41.56;102561.56;6160754;28;20242;-52
2021/04/23 08:35:14;;;;;;;10.50;3.40;;;;;;;11.39;40.99;102568.88;6161956;28;20239;-53
2021/04/23 08:38:36;;;;;;;5.83;2.63;;;;;;;11.82;40.36;102569.50;6161829;28;20242;-53
2021/04/23 08:41:56;;;;;;;15.23;4.23;;;;;;;11.16;41.70;102574.59;6158960;28;20235;-53
2021/04/23 08:45:20;;;;;;;6.33;3.23;;;;;;;11.39;40.78;102571.50;6164520;28;20521;-54
2021/04/23 08:48:42;;;;;;;9.67;3.27;;;;;;;11.65;40.79;102574.50;6164391;28;20230;-52
2021/04/23 08:52:03;;;;;;;10.37;2.87;;;;;;;11.96;40.20;102575.84;6155557;28;20254;-55
2021/04/23 08:55:26;;;;;;;11.83;3.50;;;;;;;11.91;39.50;102577.50;6158059;28;20231;-51
2021/04/23 08:58:46;;;;;;;11.00;4.43;;;;;;;12.02;38.12;102580.25;6166195;28;20329;-53
2021/04/23 09:02:07;;;;;;;12.30;4.40;;;;;;;12.44;37.40;102572.91;6156287;28;20246;-55
2021/04/23 09:05:28;;;;;;;9.40;3.97;;;;;;;12.09;39.07;102578.59;6162126;28;20242;-49
2021/04/23 09:09:00;;;;;;;10.27;3.67;;;;;;;12.28;39.59;102579.69;6161152;28;20223;-49
2021/04/23 09:12:24;;;;;;;8.93;3.23;;;;;;;12.45;38.45;102586.00;6156384;28;20702;-49
2021/04/23 09:15:46;;;;;;;10.60;3.97;;;;;;;12.31;38.14;102578.00;6152754;28;20247;-55
2021/04/23 09:19:14;;;;;;;9.77;3.27;;;;;;;12.20;37.63;102574.38;6159787;28;20251;-50
2021/04/23 09:22:35;;;;;;;10.97;3.23;;;;;;;12.69;37.17;102582.75;6161594;28;20416;-54
2021/04/23 09:25:58;;;;;;;7.90;2.40;;;;;;;12.51;37.84;102585.19;6164638;28;20234;-50
2021/04/23 09:29:28;;;;;;;10.87;3.40;;;;;;;12.64;37.34;102588.81;6160336;28;20226;-53
2021/04/23 09:32:49;;;;;;;9.93;3.63;;;;;;;12.46;36.91;102592.09;6164053;28;20268;-52
2021/04/23 09:36:13;;;;;;;11.13;3.60;;;;;;;12.34;37.64;102582.38;6158423;28;20254;-55
2021/04/23 09:39:33;;;;;;;9.60;2.83;;;;;;;12.77;35.65;102580.22;6156633;28;20628;-51
2021/04/23 09:42:57;;;;;;;8.50;2.77;;;;;;;12.77;37.88;102581.09;6159671;28;20230;-56
2021/04/23 09:46:32;;;;;;;10.23;3.63;;;;;;;12.87;39.47;102584.72;6169198;28;20496;-55
2021/04/23 09:49:53;;;;;;;6.70;3.27;;;;;;;13.57;41.13;102573.94;6162650;28;20226;-56
2021/04/23 09:53:14;;;;;;;6.10;2.87;;;;;;;13.77;37.21;102591.53;6164022;28;20230;-51
2021/04/23 09:56:35;;;;;;;7.33;3.00;;;;;;;13.23;38.82;102592.84;6162496;28;20238;-55
2021/04/23 09:59:57;;;;;;;7.23;3.20;;;;;;;13.40;36.03;102591.28;6163541;28;20234;-53
2021/04/23 10:03:30;;;;;;;8.00;3.83;;;;;;;13.46;37.02;102582.59;6160779;28;20242;-52
2021/04/23 10:07:12;;;;;;;7.27;2.43;;;;;;;13.61;37.79;102580.09;6159749;28;20716;-52
2021/04/23 10:10:33;;;;;;;9.50;3.90;;;;;;;13.78;35.78;102583.69;6157848;28;20226;-52
2021/04/23 10:14:08;;;;;;;11.17;3.47;;;;;;;13.56;35.55;102587.91;6154733;28;20227;-53
2021/04/23 10:17:29;;;;;;;10.70;3.88;;;;;;;14.53;36.08;102595.34;6157088;28;20756;-57
2021/04/23 10:20:52;;;;;;;7.10;2.83;;;;;;;15.25;35.88;102582.34;6151191;28;20226;-54
2021/04/23 10:24:12;;;;;;;7.93;3.03;;;;;;;15.39;34.72;102592.81;6161090;28;20226;-54
2021/04/23 10:27:35;;;;;;;10.57;3.70;;;;;;;14.49;33.90;102599.69;6158050;28;20633;-52
2021/04/23 10:30:56;;;;;;;6.57;2.63;;;;;;;14.63;32.94;102593.66;6157180;28;20235;-56
2021/04/23 10:34:17;;;;;;;7.07;3.13;;;;;;;15.29;32.84;102583.22;6158452;28;20239;-54
2021/04/23 10:37:38;;;;;;;10.40;3.47;;;;;;;15.39;32.61;102578.81;6167358;28;20238;-57
2021/04/23 10:41:03;;;;;;;8.10;3.07;;;;;;;15.13;33.59;102593.72;6161963;28;20268;-55
2021/04/23 10:44:50;;;;;;;8.87;3.30;;;;;;;15.24;33.42;102590.22;6164489;28;20238;-56
2021/04/23 10:48:31;;;;;;;14.93;5.20;;;;;;;15.34;33.49;102589.34;6161203;28;20243;-54
2021/04/23 10:52:03;;;;;;;10.70;4.03;;;;;;;15.44;32.96;102577.09;6148235;28;20253;-54
2021/04/23 10:55:42;;;;;;;13.77;3.93;;;;;;;15.43;32.75;102591.06;6156497;28;20313;-55
2021/04/23 10:59:05;;;;;;;6.33;2.70;;;;;;;15.61;31.21;102592.81;6156864;28;20231;-51
2021/04/23 11:02:26;;;;;;;9.00;3.70;;;;;;;15.35;32.02;102593.69;6162211;28;20540;-54
2021/04/23 11:05:47;;;;;;;4.73;2.60;;;;;;;15.58;31.74;102595.44;6164294;28;20242;-50
2021/04/23 11:09:19;;;;;;;9.67;2.57;;;;;;;14.57;32.82;102584.03;6161540;28;20800;-51
2021/04/23 11:12:40;;;;;;;8.87;4.30;;;;;;;15.76;32.31;102584.94;6161457;28;20238;-50
2021/04/23 11:16:32;;;;;;;12.03;6.10;;;;;;;16.80;30.78;102594.06;6160221;28;20239;-54
2021/04/23 11:19:53;;;;;;;8.83;3.77;;;;;;;16.11;31.44;102582.19;6163945;28;20234;-55
2021/04/23 11:23:14;;;;;;;12.57;3.87;;;;;;;15.06;34.33;102586.72;6166321;28;20238;-52
2021/04/23 11:27:04;;;;;;;10.17;4.80;;;;;;;15.30;35.30;102587.59;6161577;28;20238;-52
2021/04/23 11:30:26;;;;;;;9.33;4.23;;;;;;;16.13;33.83;102584.81;6168619;28;20226;-53
2021/04/23 11:33:55;;;;;;;9.20;3.57;;;;;;;16.56;32.15;102589.84;6165679;28;20235;-50
2021/04/23 11:37:18;;;;;;;8.10;3.77;;;;;;;17.58;30.26;102589.06;6168550;28;20254;-53
2021/04/23 11:40:39;;;;;;;8.33;3.20;;;;;;;17.64;30.19;102594.25;6155378;28;20247;-52
2021/04/23 11:44:00;;;;;;;10.63;3.73;;;;;;;15.76;32.78;102584.94;6166866;28;20867;-54
2021/04/23 11:47:32;;;;;;;7.73;3.83;;;;;;;17.01;30.75;102603.59;6164377;28;20230;-51
2021/04/23 11:50:53;;;;;;;12.07;3.20;;;;;;;16.66;33.79;102612.56;6164355;28;20241;-56
2021/04/23 11:54:13;;;;;;;11.40;3.40;;;;;;;17.98;30.23;102600.06;6165620;28;20223;-55
2021/04/23 11:57:33;;;;;;;13.70;4.83;;;;;;;18.24;29.10;102601.50;6163804;28;20238;-56
2021/04/23 12:00:58;;;;;;;11.80;4.87;;;;;;;22.22;24.36;102601.13;6155684;28;20283;-56
2021/04/23 12:04:41;;;;;;;10.37;3.30;;;;;;;19.05;27.31;102591.56;6175241;28;20246;-52
2021/04/23 12:08:06;;;;;;;12.67;4.53;;;;;;;19.22;28.90;102586.00;6161906;28;20230;-58
2021/04/23 12:11:26;;;;;;;11.33;5.60;;;;;;;21.12;25.81;102593.53;6167642;28;20250;-54
2021/04/23 12:14:48;;;;;;;8.40;3.42;;;;;;;19.88;26.15;102594.53;6159831;28;20718;-54
2021/04/23 12:18:10;;;;;;;15.30;4.25;;;;;;;23.84;21.80;102582.53;6155300;28;20242;-55
2021/04/23 12:21:32;;;;;;;13.57;3.78;;;;;;;23.72;21.24;102583.81;6161560;28;20230;-51
2021/04/23 12:24:52;;;;;;;6.55;3.28;;;;;;;24.59;19.82;102593.91;6163112;28;20238;-51
2021/04/23 12:28:21;;;;;;;8.15;3.58;;;;;;;22.49;22.65;102587.97;6164144;28;20230;-54
2021/04/23 12:31:42;;;;;;;10.55;3.90;;;;;;;23.99;21.26;102586.41;6161515;28;20262;-51
2021/04/23 12:35:04;;;;;;;10.75;3.65;;;;;;;19.46;26.91;102604.09;6159364;28;20227;-54
2021/04/23 12:38:40;;;;;;;9.10;4.15;;;;;;;21.54;23.43;102595.97;6169372;28;20321;-49
2021/04/23 12:42:03;;;;;;;9.75;2.78;;;;;;;19.26;25.97;102591.19;6158150;28;20510;-51
2021/04/23 12:45:24;;;;;;;8.70;3.83;;;;;;;21.43;23.82;102597.16;6160493;28;20231;-50
2021/04/23 12:48:54;;;;;;;11.15;3.88;;;;;;;22.14;23.37;102587.22;6166905;28;22595;-55
2021/04/23 12:52:20;;;;;;;6.63;3.53;;;;;;;21.31;24.68;102592.16;6158057;28;20234;-54
2021/04/23 12:55:42;;;;;;;6.82;3.95;;;;;;;22.98;22.38;102589.03;6156095;28;20235;-54
2021/04/23 12:59:04;;;;;;;9.10;3.30;;;;;;;24.92;20.08;102597.84;6162225;28;20250;-50
2021/04/23 13:02:29;;;;;;;7.57;2.53;;;;;;;23.87;20.27;102586.88;6155589;28;20234;-53
2021/04/23 13:05:50;;;;;;;9.98;3.00;;;;;;;20.07;25.06;102598.53;6160059;28;20230;-50
2021/04/23 13:09:12;;;;;;;10.40;2.90;;;;;;;19.18;26.36;102605.44;6157155;28;20230;-56
2021/04/23 13:12:36;;;;;;;7.38;2.97;;;;;;;22.09;22.79;102601.53;6161577;28;20665;-51
2021/04/23 13:16:04;;;;;;;10.00;3.47;;;;;;;19.22;25.98;102593.94;6154516;28;20246;-55
2021/04/23 13:19:33;;;;;;;7.28;3.70;;;;;;;22.10;22.63;102590.88;6158542;28;20241;-52
2021/04/23 13:22:55;;;;;;;7.35;2.50;;;;;;;20.71;24.36;102606.00;6159567;28;20230;-54
2021/04/23 13:26:30;;;;;;;9.57;3.15;;;;;;;20.81;23.73;102607.50;6159156;28;20242;-56
2021/04/23 13:29:51;;;;;;;10.80;2.92;;;;;;;19.85;25.70;102591.03;6158872;28;20246;-56
2021/04/23 13:33:23;;;;;;;7.63;2.30;;;;;;;21.62;23.64;102597.53;6160334;28;20234;-55
2021/04/23 13:36:48;;;;;;;9.05;2.50;;;;;;;23.10;21.41;102595.75;6162599;28;20258;-55
2021/04/23 13:40:10;;;;;;;12.85;3.25;;;;;;;21.30;23.23;102601.00;6157105;28;20513;-51
2021/04/23 13:43:31;;;;;;;7.38;2.97;;;;;;;21.60;23.01;102609.09;6157557;28;20328;-53
2021/04/23 13:46:55;;;;;;;10.35;3.05;;;;;;;21.17;23.85;102597.81;6157676;28;20533;-53
2021/04/23 13:50:17;;;;;;;4.82;2.97;;;;;;;22.67;21.78;102590.97;6154800;28;20338;-49
2021/04/23 13:53:38;;;;;;;10.05;3.42;;;;;;;23.08;21.46;102607.34;6152864;28;20235;-51
2021/04/23 13:57:06;;;;;;;10.68;2.97;;;;;;;20.98;23.27;102596.53;6153835;28;20234;-53
2021/04/23 14:00:28;;;;;;;10.25;3.08;;;;;;;22.50;22.66;102600.31;6157939;28;20230;-49
2021/04/23 14:03:49;;;;;;;8.02;2.75;;;;;;;21.06;23.60;102604.28;6157972;28;20317;-53
2021/04/23 14:07:13;;;;;;;14.75;9.40;;;;;;;22.29;22.56;102596.50;6147703;28;20231;-53
2021/04/23 14:10:36;;;;;;;7.85;3.58;;;;;;;21.96;23.34;102607.16;6161994;28;20227;-50
2021/04/23 14:13:59;;;;;;;7.03;4.18;;;;;;;21.29;23.04;102598.41;6154895;28;20258;-52
2021/04/23 14:17:22;;;;;;;6.82;3.70;;;;;;;20.80;24.15;102608.41;6155717;28;20250;-49
2021/04/23 14:20:44;;;;;;;10.98;5.82;;;;;;;20.85;24.47;102612.69;6155089;28;20227;-50
2021/04/23 14:24:06;;;;;;;7.15;4.07;;;;;;;18.50;27.14;102602.03;6150897;28;20234;-48
2021/04/23 14:27:26;;;;;;;6.65;3.10;;;;;;;17.56;29.04;102607.50;6154675;28;20246;-52
2021/04/23 14:30:47;;;;;;;9.20;3.93;;;;;;;16.56;30.50;102605.63;6151773;28;20245;-49
2021/04/23 14:34:07;;;;;;;12.47;7.40;;;;;;;18.13;29.47;102604.28;6153280;28;20905;-53
2021/04/23 14:37:29;;;;;;;8.03;2.90;;;;;;;18.84;27.79;102603.34;6160176;28;20329;-54
2021/04/23 14:40:50;;;;;;;6.00;3.00;;;;;;;18.48;28.35;102602.97;6154139;28;20785;-53
2021/04/23 14:44:11;;;;;;;7.47;2.73;;;;;;;17.02;30.63;102605.38;6161162;28;20535;-51
2021/04/23 14:47:31;;;;;;;7.70;3.20;;;;;;;16.96;31.30;102597.50;6162304;28;20322;-54
2021/04/23 14:50:53;;;;;;;7.80;3.33;;;;;;;15.01;33.82;102601.59;6164957;28;20326;-50
2021/04/23 14:54:16;;;;;;;10.93;4.10;;;;;;;16.63;32.15;102595.94;6165471;28;20344;-52
2021/04/23 14:57:37;;;;;;;8.50;2.83;;;;;;;16.80;31.29;102582.69;6166756;28;20258;-55
2021/04/23 15:00:59;;;;;;;5.87;2.50;;;;;;;15.45;33.69;102598.09;6165071;28;20239;-51
2021/04/23 15:04:19;;;;;;;7.77;2.67;;;;;;;16.37;32.30;102590.84;6165387;28;20327;-53
2021/04/23 15:07:40;;;;;;;8.43;3.33;;;;;;;16.24;32.63;102572.47;6160398;28;20238;-51
2021/04/23 15:11:02;;;;;;;7.87;2.97;;;;;;;17.10;31.36;102590.38;6173678;28;20317;-49
2021/04/23 15:14:23;;;;;;;6.93;2.60;;;;;;;16.31;32.64;102583.84;6153560;28;20239;-54
2021/04/23 15:17:44;;;;;;;7.50;2.43;;;;;;;16.48;33.26;102592.53;6168292;28;20230;-53
2021/04/23 15:21:05;;;;;;;11.30;3.07;;;;;;;17.02;32.11;102584.31;6163292;28;20231;-53
2021/04/23 15:24:26;;;;;;;5.63;2.70;;;;;;;17.74;31.46;102571.31;6161202;28;20233;-54
2021/04/23 15:27:47;;;;;;;8.10;4.30;;;;;;;16.77;31.79;102583.59;6166555;28;20250;-54
2021/04/23 15:31:08;;;;;;;8.23;3.17;;;;;;;16.82;31.86;102580.94;6160556;28;20238;-53
2021/04/23 15:34:29;;;;;;;7.40;3.50;;;;;;;16.20;32.66;102581.25;6154732;28;20268;-54
2021/04/23 15:37:50;;;;;;;7.33;3.43;;;;;;;16.71;32.18;102589.75;6158839;28;20674;-57
2021/04/23 15:41:10;;;;;;;9.27;3.70;;;;;;;16.74;32.24;102584.47;6162975;28;20226;-50